createdAt,value
2022-09-10T00:00:03.042Z,92.04
2022-09-10T00:01:04.866Z,92.09
2022-09-10T00:02:06.707Z,92.21
2022-09-10T00:03:08.558Z,92.10
2022-09-10T00:04:11.833Z,92.20
2022-09-10T00:05:13.643Z,92.14
2022-09-10T00:06:16.250Z,92.15
2022-09-10T00:07:18.911Z,92.08
2022-09-10T00:08:22.004Z,92.03
2022-09-10T00:09:24.000Z,92.26
2022-09-10T00:10:26.637Z,92.31
2022-09-10T00:11:32.448Z,92.51
2022-09-10T00:12:35.538Z,92.67
2022-09-10T00:13:39.433Z,92.69
2022-09-10T00:14:41.269Z,92.88
2022-09-10T00:15:48.729Z,92.81
2022-09-10T00:16:50.695Z,92.66
2022-09-10T00:17:52.409Z,92.53
2022-09-10T00:18:54.339Z,92.63
2022-09-10T00:19:56.148Z,92.38
2022-09-10T00:20:59.362Z,92.57
2022-09-10T00:22:01.435Z,92.43
2022-09-10T00:23:05.038Z,92.07
2022-09-10T00:24:06.920Z,92.15
2022-09-10T00:25:08.919Z,92.23
2022-09-10T00:26:13.125Z,92.03
2022-09-10T00:27:16.091Z,91.97
2022-09-10T00:28:18.669Z,91.95
2022-09-10T00:29:20.617Z,92.15
2022-09-10T00:30:22.590Z,92.06
2022-09-10T00:31:24.750Z,91.85
2022-09-10T00:32:26.572Z,91.77
2022-09-10T00:33:30.455Z,91.58
2022-09-10T00:34:33.190Z,91.42
2022-09-10T00:35:35.057Z,91.47
2022-09-10T00:36:38.884Z,91.58
2022-09-10T00:37:41.130Z,91.96
2022-09-10T00:38:43.039Z,91.85
2022-09-10T00:39:44.907Z,91.73
2022-09-10T00:40:47.126Z,91.51
2022-09-10T00:41:49.148Z,91.48
2022-09-10T00:42:50.866Z,91.35
2022-09-10T00:43:56.829Z,91.56
2022-09-10T00:45:00.284Z,91.38
2022-09-10T00:46:02.209Z,91.27
2022-09-10T00:47:05.152Z,91.14
2022-09-10T00:48:12.421Z,91.35
2022-09-10T00:49:20.656Z,91.10
2022-09-10T00:50:25.889Z,91.20
2022-09-10T00:51:31.603Z,91.05
2022-09-10T00:52:38.921Z,91.30
2022-09-10T00:53:43.426Z,91.45
2022-09-10T00:54:45.923Z,91.46
2022-09-10T00:55:50.660Z,91.32
2022-09-10T00:56:55.300Z,91.23
2022-09-10T00:58:00.697Z,91.36
2022-09-10T00:59:04.046Z,91.04
2022-09-10T01:00:08.309Z,91.29
2022-09-10T01:01:11.344Z,91.13
2022-09-10T01:02:15.151Z,91.40
2022-09-10T01:03:17.374Z,91.44
2022-09-10T01:04:19.167Z,91.51
2022-09-10T01:05:21.586Z,91.73
2022-09-10T01:06:24.335Z,91.45
2022-09-10T01:07:29.352Z,91.37
2022-09-10T01:08:31.610Z,91.47
2022-09-10T01:09:33.523Z,91.34
2022-09-10T01:10:41.006Z,90.86
2022-09-10T01:11:49.931Z,90.52
2022-09-10T01:12:54.670Z,90.25
2022-09-10T01:14:14.787Z,90.56
2022-09-10T01:15:28.877Z,90.20
2022-09-10T01:16:59.926Z,90.04
2022-09-10T01:18:24.077Z,89.72
2022-09-10T01:19:25.864Z,90.22
2022-09-10T01:20:29.028Z,89.98
2022-09-10T01:21:47.141Z,90.14
2022-09-10T01:22:57.935Z,90.07
2022-09-10T01:24:12.845Z,90.04
2022-09-10T01:25:34.254Z,90.29
2022-09-10T01:26:55.266Z,89.94
2022-09-10T01:27:59.945Z,89.58
2022-09-10T01:29:24.806Z,89.58
2022-09-10T01:30:36.382Z,89.48
2022-09-10T01:31:50.267Z,89.65
2022-09-10T01:32:52.055Z,89.58
2022-09-10T01:34:02.517Z,89.62
2022-09-10T01:35:23.833Z,89.67
2022-09-10T01:36:29.855Z,89.15
2022-09-10T01:37:32.406Z,89.03
2022-09-10T01:38:35.939Z,89.28
2022-09-10T01:39:38.614Z,89.64
2022-09-10T01:40:40.606Z,89.83
2022-09-10T01:41:42.899Z,89.77
2022-09-10T01:42:45.751Z,89.72
2022-09-10T01:43:47.565Z,89.61
2022-09-10T01:44:50.484Z,89.67
2022-09-10T01:45:52.327Z,89.84
2022-09-10T01:47:11.683Z,89.57
2022-09-10T01:48:29.459Z,89.68
2022-09-10T01:49:39.523Z,89.71
2022-09-10T01:51:04.760Z,89.97
2022-09-10T01:52:28.766Z,89.95
2022-09-10T01:53:39.634Z,90.07
2022-09-10T01:55:00.189Z,89.82
2022-09-10T01:56:08.148Z,89.94
2022-09-10T01:57:15.939Z,90.27
2022-09-10T01:58:26.921Z,90.29
2022-09-10T01:59:29.364Z,90.35
2022-09-10T02:00:33.657Z,90.12
2022-09-10T02:01:46.250Z,90.51
2022-09-10T02:02:58.017Z,90.74
2022-09-10T02:04:02.292Z,90.92
2022-09-10T02:05:06.452Z,90.90
2022-09-10T02:06:09.818Z,90.73
2022-09-10T02:07:13.164Z,90.69
2022-09-10T02:08:21.268Z,90.51
2022-09-10T02:09:23.352Z,90.65
2022-09-10T02:10:25.383Z,90.81
2022-09-10T02:11:27.211Z,90.74
2022-09-10T02:12:29.877Z,90.63
2022-09-10T02:13:31.731Z,90.61
2022-09-10T02:14:33.791Z,90.60
2022-09-10T02:15:38.279Z,90.60
2022-09-10T02:16:43.468Z,90.38
2022-09-10T02:17:46.881Z,90.69
2022-09-10T02:18:49.950Z,90.89
2022-09-10T02:19:52.883Z,91.08
2022-09-10T02:20:58.377Z,90.96
2022-09-10T02:22:01.303Z,91.25
2022-09-10T02:23:03.760Z,91.16
2022-09-10T02:24:07.258Z,91.25
2022-09-10T02:25:10.125Z,91.19
2022-09-10T02:26:14.514Z,90.97
2022-09-10T02:27:16.596Z,91.00
2022-09-10T02:28:18.881Z,90.89
2022-09-10T02:29:20.777Z,90.94
2022-09-10T02:30:23.967Z,90.45
2022-09-10T02:31:26.331Z,90.51
2022-09-10T02:32:28.991Z,90.44
2022-09-10T02:33:31.365Z,90.64
2022-09-10T02:34:33.353Z,90.42
2022-09-10T02:35:35.134Z,90.26
2022-09-10T02:36:37.512Z,90.17
2022-09-10T02:37:39.291Z,90.17
2022-09-10T02:38:41.147Z,90.25
2022-09-10T02:39:43.493Z,90.16
2022-09-10T02:40:48.761Z,90.06
2022-09-10T02:41:51.230Z,90.02
2022-09-10T02:42:53.051Z,90.06
2022-09-10T02:43:55.915Z,90.08
2022-09-10T02:44:57.753Z,89.59
2022-09-10T02:45:59.910Z,89.61
2022-09-10T02:47:01.746Z,89.64
2022-09-10T02:48:04.529Z,89.54
2022-09-10T02:49:06.729Z,89.79
2022-09-10T02:50:08.996Z,89.81
2022-09-10T02:51:10.982Z,89.61
2022-09-10T02:52:12.890Z,89.66
2022-09-10T02:53:14.661Z,89.68
2022-09-10T02:54:16.666Z,89.49
2022-09-10T02:55:19.075Z,89.39
2022-09-10T02:56:20.899Z,89.69
2022-09-10T02:57:22.733Z,89.96
2022-09-10T02:58:24.528Z,89.25
2022-09-10T02:59:26.313Z,89.29
2022-09-10T03:00:28.069Z,89.63
2022-09-10T03:01:30.062Z,89.73
2022-09-10T03:02:31.934Z,89.62
2022-09-10T03:03:33.686Z,89.33
2022-09-10T03:04:35.503Z,89.57
2022-09-10T03:05:38.640Z,89.40
2022-09-10T03:06:41.149Z,89.01
2022-09-10T03:07:44.062Z,88.96
2022-09-10T03:08:45.894Z,89.18
2022-09-10T03:09:47.808Z,89.18
2022-09-10T03:10:49.879Z,89.24
2022-09-10T03:11:52.237Z,89.14
2022-09-10T03:12:54.745Z,89.15
2022-09-10T03:13:56.516Z,89.28
2022-09-10T03:14:59.534Z,89.47
2022-09-10T03:16:04.429Z,89.37
2022-09-10T03:17:06.593Z,89.22
2022-09-10T03:18:09.513Z,89.34
2022-09-10T03:19:11.304Z,89.32
2022-09-10T03:20:13.818Z,89.39
2022-09-10T03:21:18.655Z,89.02
2022-09-10T03:22:20.492Z,88.86
2022-09-10T03:23:22.406Z,88.64
2022-09-10T03:24:25.665Z,88.64
2022-09-10T03:25:27.421Z,88.41
2022-09-10T03:26:29.126Z,88.65
2022-09-10T03:27:31.101Z,88.48
2022-09-10T03:28:33.368Z,88.92
2022-09-10T03:29:35.171Z,89.11
2022-09-10T03:30:37.530Z,89.10
2022-09-10T03:31:39.965Z,89.07
2022-09-10T03:32:41.909Z,89.09
2022-09-10T03:33:43.995Z,89.20
2022-09-10T03:34:45.763Z,89.11
2022-09-10T03:35:48.792Z,89.10
2022-09-10T03:36:51.754Z,88.92
2022-09-10T03:37:53.632Z,88.64
2022-09-10T03:38:55.512Z,88.54
2022-09-10T03:39:58.260Z,88.72
2022-09-10T03:41:03.273Z,89.01
2022-09-10T03:42:05.510Z,88.92
2022-09-10T03:43:07.509Z,89.03
2022-09-10T03:44:09.461Z,89.05
2022-09-10T03:45:12.346Z,88.88
2022-09-10T03:46:14.761Z,88.80
2022-09-10T03:47:16.752Z,88.72
2022-09-10T03:48:19.591Z,88.78
2022-09-10T03:49:21.407Z,88.57
2022-09-10T03:50:23.252Z,88.81
2022-09-10T03:51:25.194Z,88.83
2022-09-10T03:52:27.402Z,88.75
2022-09-10T03:53:29.230Z,88.78
2022-09-10T03:54:31.058Z,89.03
2022-09-10T03:55:32.855Z,88.88
2022-09-10T03:56:34.935Z,88.87
2022-09-10T03:57:36.666Z,88.89
2022-09-10T03:58:39.191Z,88.78
2022-09-10T03:59:41.428Z,88.84
2022-09-10T04:00:43.258Z,89.00
2022-09-10T04:01:45.702Z,88.87
2022-09-10T04:02:48.529Z,88.57
2022-09-10T04:03:50.493Z,88.68
2022-09-10T04:04:52.247Z,88.66
2022-09-10T04:05:54.446Z,88.70
2022-09-10T04:06:56.279Z,88.72
2022-09-10T04:08:02.225Z,88.79
2022-09-10T04:09:04.096Z,88.81
2022-09-10T04:10:06.157Z,88.76
2022-09-10T04:11:08.020Z,88.99
2022-09-10T04:12:09.967Z,88.92
2022-09-10T04:13:11.987Z,89.03
2022-09-10T04:14:13.983Z,89.12
2022-09-10T04:15:15.926Z,89.06
2022-09-10T04:16:18.408Z,88.96
2022-09-10T04:17:21.045Z,89.08
2022-09-10T04:18:22.886Z,88.93
2022-09-10T04:19:25.011Z,89.06
2022-09-10T04:20:27.351Z,88.93
2022-09-10T04:21:29.292Z,88.94
2022-09-10T04:22:31.104Z,88.86
2022-09-10T04:23:33.079Z,88.85
2022-09-10T04:24:34.980Z,88.86
2022-09-10T04:25:36.797Z,88.93
2022-09-10T04:26:38.651Z,89.02
2022-09-10T04:27:40.411Z,88.94
2022-09-10T04:28:42.252Z,89.14
2022-09-10T04:29:44.314Z,88.91
2022-09-10T04:30:47.383Z,88.93
2022-09-10T04:31:49.275Z,88.81
2022-09-10T04:32:52.882Z,88.64
2022-09-10T04:33:54.913Z,88.71
2022-09-10T04:34:56.758Z,88.54
2022-09-10T04:36:01.329Z,88.54
2022-09-10T04:37:03.049Z,88.70
2022-09-10T04:38:04.908Z,88.66
2022-09-10T04:39:06.675Z,88.66
2022-09-10T04:40:12.096Z,88.60
2022-09-10T04:41:15.791Z,88.85
2022-09-10T04:42:19.402Z,88.81
2022-09-10T04:43:21.207Z,88.72
2022-09-10T04:44:23.021Z,88.75
2022-09-10T04:45:26.177Z,88.95
2022-09-10T04:46:28.063Z,89.03
2022-09-10T04:47:29.976Z,89.27
2022-09-10T04:48:32.807Z,89.25
2022-09-10T04:49:34.591Z,89.14
2022-09-10T04:50:36.330Z,89.09
2022-09-10T04:51:38.139Z,89.13
2022-09-10T04:52:39.972Z,89.04
2022-09-10T04:53:42.197Z,88.89
2022-09-10T04:54:44.208Z,89.04
2022-09-10T04:55:47.140Z,88.94
2022-09-10T04:56:50.009Z,88.77
2022-09-10T04:57:51.977Z,88.73
2022-09-10T04:58:53.752Z,88.70
2022-09-10T04:59:56.000Z,88.53
2022-09-10T05:00:57.875Z,88.46
2022-09-10T05:01:59.667Z,88.56
2022-09-10T05:03:01.571Z,88.58
2022-09-10T05:04:03.851Z,88.65
2022-09-10T05:05:05.940Z,88.46
2022-09-10T05:06:07.757Z,88.61
2022-09-10T05:07:09.682Z,88.68
2022-09-10T05:08:12.985Z,88.59
2022-09-10T05:09:14.768Z,88.53
2022-09-10T05:10:16.735Z,88.60
2022-09-10T05:11:21.418Z,88.64
2022-09-10T05:12:24.462Z,88.55
2022-09-10T05:13:26.232Z,88.62
2022-09-10T05:14:28.524Z,88.53
2022-09-10T05:15:30.375Z,88.66
2022-09-10T05:16:32.237Z,88.74
2022-09-10T05:17:34.427Z,88.60
2022-09-10T05:18:36.196Z,88.90
2022-09-10T05:19:37.950Z,88.92
2022-09-10T05:20:39.799Z,88.95
2022-09-10T05:21:41.675Z,89.01
2022-09-10T05:22:43.506Z,89.22
2022-09-10T05:23:45.466Z,89.00
2022-09-10T05:24:47.319Z,89.17
2022-09-10T05:25:49.136Z,89.03
2022-09-10T05:26:51.002Z,89.09
2022-09-10T05:27:53.001Z,89.02
2022-09-10T05:28:55.788Z,89.01
2022-09-10T05:29:57.918Z,89.12
2022-09-10T05:30:59.917Z,88.81
2022-09-10T05:32:01.823Z,89.00
2022-09-10T05:33:03.816Z,88.82
2022-09-10T05:34:05.610Z,88.92
2022-09-10T05:35:08.969Z,88.46
2022-09-10T05:36:11.009Z,88.30
2022-09-10T05:37:12.794Z,88.17
2022-09-10T05:38:14.532Z,88.34
2022-09-10T05:39:16.656Z,88.54
2022-09-10T05:40:18.867Z,88.39
2022-09-10T05:41:21.305Z,88.41
2022-09-10T05:42:23.105Z,88.21
2022-09-10T05:43:25.361Z,87.98
2022-09-10T05:44:27.117Z,88.16
2022-09-10T05:45:29.023Z,88.00
2022-09-10T05:46:33.541Z,88.04
2022-09-10T05:47:35.820Z,87.95
2022-09-10T05:48:40.991Z,88.04
2022-09-10T05:49:43.576Z,88.11
2022-09-10T05:50:45.984Z,87.82
2022-09-10T05:51:47.747Z,88.08
2022-09-10T05:52:49.488Z,88.18
2022-09-10T05:53:51.326Z,88.29
2022-09-10T05:54:54.819Z,88.23
2022-09-10T05:55:56.620Z,88.37
2022-09-10T05:56:58.953Z,88.54
2022-09-10T05:58:00.860Z,88.67
2022-09-10T05:59:04.295Z,88.60
2022-09-10T06:00:09.722Z,88.67
2022-09-10T06:01:11.528Z,88.51
2022-09-10T06:02:19.545Z,88.36
2022-09-10T06:03:25.093Z,88.34
2022-09-10T06:04:26.980Z,88.13
2022-09-10T06:05:28.790Z,88.19
2022-09-10T06:06:31.265Z,88.31
2022-09-10T06:07:33.141Z,88.14
2022-09-10T06:08:35.974Z,88.20
2022-09-10T06:09:37.731Z,87.99
2022-09-10T06:10:39.666Z,87.97
2022-09-10T06:11:42.059Z,88.17
2022-09-10T06:12:47.056Z,88.19
2022-09-10T06:13:49.267Z,88.27
2022-09-10T06:14:51.096Z,88.32
2022-09-10T06:15:53.219Z,88.05
2022-09-10T06:16:55.816Z,88.07
2022-09-10T06:17:58.491Z,88.23
2022-09-10T06:19:00.556Z,88.09
2022-09-10T06:20:02.395Z,88.00
2022-09-10T06:21:04.307Z,87.79
2022-09-10T06:22:06.507Z,87.88
2022-09-10T06:23:08.358Z,88.17
2022-09-10T06:24:10.367Z,88.13
2022-09-10T06:25:12.848Z,88.20
2022-09-10T06:26:17.300Z,88.21
2022-09-10T06:27:19.187Z,87.99
2022-09-10T06:28:20.909Z,87.95
2022-09-10T06:29:22.811Z,88.04
2022-09-10T06:30:24.685Z,88.01
2022-09-10T06:31:27.398Z,87.92
2022-09-10T06:32:29.226Z,88.00
2022-09-10T06:33:31.412Z,88.02
2022-09-10T06:34:33.226Z,88.02
2022-09-10T06:35:35.717Z,87.78
2022-09-10T06:36:37.567Z,87.94
2022-09-10T06:37:39.479Z,88.01
2022-09-10T06:38:41.756Z,87.97
2022-09-10T06:39:43.549Z,87.92
2022-09-10T06:40:55.225Z,87.99
2022-09-10T06:41:57.005Z,88.06
2022-09-10T06:43:01.477Z,88.05
2022-09-10T06:44:03.376Z,87.91
2022-09-10T06:45:05.926Z,88.04
2022-09-10T06:46:24.773Z,88.16
2022-09-10T06:48:18.829Z,88.30
2022-09-10T06:48:53.882Z,88.92
2022-09-10T06:49:56.160Z,89.42
2022-09-10T06:50:59.128Z,89.72
2022-09-10T06:52:01.750Z,90.22
2022-09-10T06:53:03.611Z,90.19
2022-09-10T06:54:05.754Z,90.32
2022-09-10T06:55:07.733Z,90.39
2022-09-10T06:56:13.056Z,90.33
2022-09-10T06:57:14.859Z,90.23
2022-09-10T06:58:20.955Z,89.91
2022-09-10T06:59:23.506Z,89.84
2022-09-10T07:00:25.417Z,89.72
2022-09-10T07:01:27.262Z,89.54
2022-09-10T07:02:31.154Z,89.42
2022-09-10T07:03:32.949Z,89.34
2022-09-10T07:04:34.904Z,89.49
2022-09-10T07:05:36.724Z,89.35
2022-09-10T07:06:38.925Z,89.24
2022-09-10T07:07:41.152Z,89.48
2022-09-10T07:08:43.189Z,89.73
2022-09-10T07:09:44.994Z,89.73
2022-09-10T07:10:46.906Z,89.83
2022-09-10T07:11:48.749Z,89.55
2022-09-10T07:12:50.602Z,89.32
2022-09-10T07:13:54.064Z,89.38
2022-09-10T07:14:55.911Z,89.55
2022-09-10T07:15:58.193Z,89.43
2022-09-10T07:17:00.024Z,89.77
2022-09-10T07:18:01.830Z,90.34
2022-09-10T07:19:03.590Z,90.10
2022-09-10T07:20:05.901Z,90.09
2022-09-10T07:21:11.427Z,89.96
2022-09-10T07:22:13.339Z,89.70
2022-09-10T07:23:16.669Z,89.62
2022-09-10T07:24:20.272Z,89.19
2022-09-10T07:25:23.130Z,89.44
2022-09-10T07:26:26.156Z,89.08
2022-09-10T07:27:27.942Z,89.01
2022-09-10T07:28:29.856Z,89.14
2022-09-10T07:29:31.771Z,89.17
2022-09-10T07:30:36.254Z,88.87
2022-09-10T07:31:38.620Z,88.74
2022-09-10T07:32:43.557Z,88.86
2022-09-10T07:33:46.159Z,88.98
2022-09-10T07:34:47.954Z,89.32
2022-09-10T07:35:50.127Z,89.44
2022-09-10T07:36:51.918Z,89.50
2022-09-10T07:37:54.595Z,89.44
2022-09-10T07:39:03.927Z,89.73
2022-09-10T07:40:06.888Z,89.58
2022-09-10T07:41:11.552Z,89.44
2022-09-10T07:42:13.332Z,89.57
2022-09-10T07:43:15.717Z,89.53
2022-09-10T07:44:17.530Z,89.46
2022-09-10T07:45:19.393Z,89.19
2022-09-10T07:46:22.061Z,89.17
2022-09-10T07:47:25.497Z,88.89
2022-09-10T07:48:28.624Z,88.78
2022-09-10T07:49:30.518Z,88.30
2022-09-10T07:50:32.381Z,88.20
2022-09-10T07:51:34.755Z,88.26
2022-09-10T07:52:37.077Z,88.49
2022-09-10T07:53:44.423Z,88.18
2022-09-10T07:54:51.738Z,88.15
2022-09-10T07:56:04.022Z,88.58
2022-09-10T07:57:05.947Z,88.60
2022-09-10T07:58:07.661Z,88.67
2022-09-10T07:59:09.436Z,88.63
2022-09-10T08:00:16.027Z,88.75
2022-09-10T08:01:19.811Z,88.94
2022-09-10T08:02:22.629Z,88.88
2022-09-10T08:03:24.429Z,88.70
2022-09-10T08:04:26.297Z,88.35
2022-09-10T08:05:29.381Z,88.40
2022-09-10T08:06:32.490Z,88.46
2022-09-10T08:07:34.538Z,88.75
2022-09-10T08:08:38.679Z,88.70
2022-09-10T08:09:40.533Z,88.45
2022-09-10T08:10:42.473Z,88.39
2022-09-10T08:11:44.252Z,88.70
2022-09-10T08:12:46.073Z,88.33
2022-09-10T08:13:48.980Z,88.28
2022-09-10T08:14:51.091Z,88.59
2022-09-10T08:15:52.980Z,88.53
2022-09-10T08:16:54.861Z,88.64
2022-09-10T08:17:56.770Z,88.59
2022-09-10T08:18:58.651Z,88.53
2022-09-10T08:20:01.485Z,88.29
2022-09-10T08:21:04.455Z,88.20
2022-09-10T08:22:09.141Z,88.21
2022-09-10T08:23:14.696Z,87.71
2022-09-10T08:24:16.620Z,87.83
2022-09-10T08:25:20.985Z,88.19
2022-09-10T08:26:23.940Z,87.81
2022-09-10T08:27:25.686Z,88.07
2022-09-10T08:28:27.866Z,88.29
2022-09-10T08:29:30.265Z,88.17
2022-09-10T08:30:32.438Z,88.05
2022-09-10T08:31:34.911Z,88.06
2022-09-10T08:32:36.780Z,88.04
2022-09-10T08:33:40.106Z,88.23
2022-09-10T08:34:46.369Z,88.15
2022-09-10T08:35:57.313Z,87.91
2022-09-10T08:36:59.920Z,87.92
2022-09-10T08:38:01.976Z,87.73
2022-09-10T08:39:08.118Z,87.84
2022-09-10T08:40:14.578Z,87.82
2022-09-10T08:41:22.422Z,87.77
2022-09-10T08:42:28.598Z,87.65
2022-09-10T08:43:45.796Z,87.72
2022-09-10T08:44:55.939Z,87.53
2022-09-10T08:46:03.341Z,87.53
2022-09-10T08:47:20.744Z,87.83
2022-09-10T08:48:25.632Z,87.85
2022-09-10T08:49:45.845Z,88.16
2022-09-10T08:50:53.437Z,87.63
2022-09-10T08:52:19.455Z,87.39
2022-09-10T08:53:32.213Z,87.05
2022-09-10T08:54:48.528Z,86.92
2022-09-10T08:55:52.123Z,86.93
2022-09-10T08:56:58.603Z,86.63
2022-09-10T08:58:10.579Z,86.59
2022-09-10T08:59:18.279Z,86.73
2022-09-10T09:00:24.809Z,87.01
2022-09-10T09:01:42.386Z,87.01
2022-09-10T09:02:49.492Z,87.20
2022-09-10T09:03:52.015Z,87.30
2022-09-10T09:05:05.894Z,87.44
2022-09-10T09:06:26.153Z,88.03
2022-09-10T09:07:31.633Z,88.30
2022-09-10T09:08:48.679Z,88.82
2022-09-10T09:09:54.747Z,88.11
2022-09-10T09:11:04.448Z,88.23
2022-09-10T09:12:38.653Z,88.11
2022-09-10T09:13:58.666Z,88.18
2022-09-10T09:15:14.193Z,88.33
2022-09-10T09:16:16.957Z,88.13
2022-09-10T09:17:40.972Z,87.85
2022-09-10T09:19:08.896Z,87.84
2022-09-10T09:20:15.888Z,87.87
2022-09-10T09:21:20.969Z,87.46
2022-09-10T09:22:46.579Z,87.59
2022-09-10T09:24:13.058Z,87.53
2022-09-10T09:25:23.043Z,87.35
2022-09-10T09:26:28.800Z,87.25
2022-09-10T09:27:33.899Z,87.06
2022-09-10T09:28:50.845Z,86.71
2022-09-10T09:30:08.398Z,86.50
2022-09-10T09:31:14.640Z,85.96
2022-09-10T09:32:18.145Z,86.13
2022-09-10T09:33:23.941Z,86.01
2022-09-10T09:34:25.968Z,85.72
2022-09-10T09:35:33.135Z,85.20
2022-09-10T09:36:39.647Z,84.60
2022-09-10T09:37:42.395Z,84.44
2022-09-10T09:38:47.481Z,84.01
2022-09-10T09:40:05.823Z,84.21
2022-09-10T09:41:28.399Z,84.29
2022-09-10T09:42:35.731Z,83.44
2022-09-10T09:43:50.127Z,83.09
2022-09-10T09:45:01.762Z,83.55
2022-09-10T09:46:04.956Z,83.51
2022-09-10T09:47:09.505Z,83.48
2022-09-10T09:48:18.515Z,83.72
2022-09-10T09:49:20.423Z,83.98
2022-09-10T09:50:23.189Z,83.95
2022-09-10T09:51:25.589Z,83.74
2022-09-10T09:52:31.592Z,83.71
2022-09-10T09:53:33.430Z,83.51
2022-09-10T09:55:09.919Z,83.12
2022-09-10T09:56:02.384Z,82.02
2022-09-10T09:57:14.792Z,81.37
2022-09-10T09:58:22.740Z,82.01
2022-09-10T09:59:24.585Z,81.97
2022-09-10T10:00:37.484Z,82.29
2022-09-10T10:01:40.784Z,82.31
2022-09-10T10:02:43.021Z,82.22
2022-09-10T10:03:50.571Z,82.42
2022-09-10T10:04:55.629Z,82.40
2022-09-10T10:06:08.212Z,81.84
2022-09-10T10:07:12.194Z,81.76
2022-09-10T10:08:42.963Z,81.59
2022-09-10T10:09:49.318Z,81.82
2022-09-10T10:10:52.171Z,81.43
2022-09-10T10:12:00.525Z,81.06
2022-09-10T10:13:02.272Z,81.32
2022-09-10T10:14:23.725Z,81.48
2022-09-10T10:15:39.355Z,81.73
2022-09-10T10:16:41.118Z,81.67
2022-09-10T10:17:43.810Z,80.84
2022-09-10T10:18:46.054Z,80.69
2022-09-10T10:19:57.249Z,81.09
2022-09-10T10:21:10.987Z,81.11
2022-09-10T10:22:18.889Z,80.74
2022-09-10T10:23:34.480Z,80.38
2022-09-10T10:24:36.251Z,80.33
2022-09-10T10:25:40.751Z,80.21
2022-09-10T10:26:44.316Z,80.20
2022-09-10T10:27:48.555Z,80.40
2022-09-10T10:28:56.354Z,80.73
2022-09-10T10:30:00.538Z,80.50
2022-09-10T10:31:04.746Z,80.19
2022-09-10T10:32:15.594Z,80.25
2022-09-10T10:33:19.700Z,80.58
2022-09-10T10:34:30.753Z,80.17
2022-09-10T10:35:44.682Z,80.28
2022-09-10T10:37:05.084Z,80.38
2022-09-10T10:38:13.312Z,79.79
2022-09-10T10:39:21.081Z,79.59
2022-09-10T10:40:43.904Z,79.88
2022-09-10T10:41:59.935Z,79.56
2022-09-10T10:43:01.673Z,79.34
2022-09-10T10:44:24.447Z,79.34
2022-09-10T10:45:39.151Z,79.72
2022-09-10T10:46:54.422Z,79.45
2022-09-10T10:48:12.854Z,78.95
2022-09-10T10:49:29.735Z,78.94
2022-09-10T10:50:35.266Z,79.27
2022-09-10T10:51:37.154Z,79.25
2022-09-10T10:52:57.068Z,79.01
2022-09-10T10:54:05.052Z,78.74
2022-09-10T10:55:09.927Z,79.00
2022-09-10T10:56:20.236Z,78.72
2022-09-10T10:57:28.170Z,78.26
2022-09-10T10:58:41.273Z,77.85
2022-09-10T11:00:03.931Z,77.65
2022-09-10T11:01:19.582Z,77.98
2022-09-10T11:02:41.682Z,77.91
2022-09-10T11:04:01.983Z,77.81
2022-09-10T11:05:18.594Z,77.63
2022-09-10T11:06:23.774Z,77.55
2022-09-10T11:07:28.863Z,77.38
2022-09-10T11:08:34.943Z,77.10
2022-09-10T11:09:41.461Z,77.13
2022-09-10T11:10:45.391Z,76.32
2022-09-10T11:11:50.177Z,76.61
2022-09-10T11:13:03.889Z,77.16
2022-09-10T11:14:16.353Z,77.01
2022-09-10T11:15:25.448Z,77.27
2022-09-10T11:16:29.717Z,76.87
2022-09-10T11:17:43.867Z,77.29
2022-09-10T11:18:51.106Z,77.55
2022-09-10T11:20:28.078Z,77.39
2022-09-10T11:21:35.282Z,76.38
2022-09-10T11:22:42.108Z,77.41
2022-09-10T11:23:52.656Z,77.42
2022-09-10T11:25:08.806Z,77.40
2022-09-10T11:26:21.294Z,77.47
2022-09-10T11:27:27.946Z,77.25
2022-09-10T11:28:36.812Z,77.82
2022-09-10T11:29:57.366Z,77.33
2022-09-10T11:31:19.778Z,74.63
2022-09-10T11:32:30.828Z,74.99
2022-09-10T11:33:46.529Z,75.88
2022-09-10T11:35:04.015Z,75.73
2022-09-10T11:36:11.278Z,74.99
2022-09-10T11:37:20.504Z,73.75
2022-09-10T11:38:30.699Z,72.66
2022-09-10T11:39:34.711Z,71.42
2022-09-10T11:40:46.547Z,72.22
2022-09-10T11:41:52.247Z,69.79
2022-09-10T11:42:57.081Z,69.36
2022-09-10T11:44:18.612Z,69.89
2022-09-10T11:45:29.771Z,68.75
2022-09-10T11:46:36.210Z,67.96
2022-09-10T11:47:44.919Z,64.84
2022-09-10T11:48:49.879Z,64.88
2022-09-10T11:49:51.637Z,65.29
2022-09-10T11:50:57.866Z,65.56
2022-09-10T11:51:59.779Z,63.74
2022-09-10T11:53:04.222Z,62.91
2022-09-10T11:54:10.414Z,64.14
2022-09-10T11:55:14.904Z,62.89
2022-09-10T11:56:35.213Z,63.35
2022-09-10T11:57:40.158Z,62.94
2022-09-10T11:58:59.996Z,61.61
2022-09-10T12:00:07.932Z,59.04
2022-09-10T12:01:09.667Z,59.11
2022-09-10T12:02:30.062Z,60.79
2022-09-10T12:03:38.183Z,62.38
2022-09-10T12:04:58.749Z,59.80
2022-09-10T12:06:00.979Z,60.36
2022-09-10T12:07:09.234Z,62.18
2022-09-10T12:08:17.992Z,63.40
2022-09-10T12:09:25.054Z,62.22
2022-09-10T12:10:44.922Z,63.29
2022-09-10T12:12:04.973Z,64.46
2022-09-10T12:13:09.819Z,62.58
2022-09-10T12:14:15.845Z,63.25
2022-09-10T12:15:20.057Z,64.16
2022-09-10T12:16:41.348Z,65.21
2022-09-10T12:17:45.512Z,64.03
2022-09-10T12:18:49.181Z,64.48
2022-09-10T12:19:53.854Z,63.92
2022-09-10T12:21:00.407Z,63.66
2022-09-10T12:22:04.691Z,63.92
2022-09-10T12:23:06.956Z,63.08
2022-09-10T12:24:29.942Z,62.75
2022-09-10T12:25:34.558Z,62.85
2022-09-10T12:26:45.151Z,63.62
2022-09-10T12:27:51.965Z,61.93
2022-09-10T12:28:53.803Z,62.83
2022-09-10T12:29:55.666Z,62.03
2022-09-10T12:31:01.414Z,62.31
2022-09-10T12:32:09.342Z,60.93
2022-09-10T12:33:13.887Z,60.24
2022-09-10T12:34:17.413Z,60.61
2022-09-10T12:35:38.263Z,60.92
2022-09-10T12:36:40.142Z,60.98
2022-09-10T12:37:41.883Z,59.02
2022-09-10T12:38:50.104Z,58.04
2022-09-10T12:40:24.107Z,58.08
2022-09-10T12:41:25.940Z,59.50
2022-09-10T12:42:29.717Z,58.94
2022-09-10T12:43:40.417Z,56.02
2022-09-10T12:44:42.211Z,55.36
2022-09-10T12:46:03.882Z,56.92
2022-09-10T12:47:17.886Z,58.50
2022-09-10T12:48:22.869Z,56.01
2022-09-10T12:49:27.096Z,56.26
2022-09-10T12:50:30.914Z,57.33
2022-09-10T12:51:38.806Z,57.46
2022-09-10T12:52:43.315Z,54.65
2022-09-10T12:53:45.083Z,56.62
2022-09-10T12:54:56.064Z,56.18
2022-09-10T12:55:59.991Z,54.26
2022-09-10T12:57:05.578Z,52.49
2022-09-10T12:58:25.950Z,54.42
2022-09-10T12:59:45.193Z,56.41
2022-09-10T13:00:56.241Z,54.85
2022-09-10T13:01:58.661Z,55.70
2022-09-10T13:03:09.361Z,56.84
2022-09-10T13:04:28.730Z,57.57
2022-09-10T13:05:46.937Z,57.96
2022-09-10T13:06:48.857Z,57.88
2022-09-10T13:07:59.595Z,58.71
2022-09-10T13:09:03.522Z,57.91
2022-09-10T13:10:07.657Z,57.58
2022-09-10T13:11:16.042Z,56.92
2022-09-10T13:12:20.168Z,56.97
2022-09-10T13:13:34.512Z,58.84
2022-09-10T13:14:39.807Z,58.41
2022-09-10T13:15:49.856Z,56.69
2022-09-10T13:16:51.682Z,57.31
2022-09-10T13:17:54.885Z,56.27
2022-09-10T13:19:14.881Z,57.32
2022-09-10T13:20:19.958Z,55.47
2022-09-10T13:21:24.506Z,56.55
2022-09-10T13:22:52.753Z,55.91
2022-09-10T13:23:55.168Z,55.46
2022-09-10T13:25:06.326Z,56.74
2022-09-10T13:26:26.935Z,57.37
2022-09-10T13:27:41.050Z,57.27
2022-09-10T13:28:43.158Z,57.79
2022-09-10T13:29:47.734Z,57.87
2022-09-10T13:30:58.532Z,58.26
2022-09-10T13:32:08.973Z,57.54
2022-09-10T13:33:11.830Z,55.76
2022-09-10T13:34:14.356Z,56.53
2022-09-10T13:35:22.253Z,55.86
2022-09-10T13:36:27.074Z,57.12
2022-09-10T13:38:01.386Z,56.18
2022-09-10T13:39:21.545Z,55.47
2022-09-10T13:40:39.093Z,57.51
2022-09-10T13:41:56.599Z,58.17
2022-09-10T13:43:19.086Z,58.19
2022-09-10T13:44:31.318Z,57.51
2022-09-10T13:45:48.254Z,57.44
2022-09-10T13:46:52.626Z,53.58
2022-09-10T13:48:01.715Z,55.35
2022-09-10T13:49:22.244Z,57.08
2022-09-10T13:50:29.100Z,57.90
2022-09-10T13:51:41.079Z,57.87
2022-09-10T13:52:45.465Z,55.79
2022-09-10T13:53:49.348Z,57.20
2022-09-10T13:54:55.470Z,57.38
2022-09-10T13:56:02.062Z,56.16
2022-09-10T13:57:24.126Z,56.48
2022-09-10T13:58:29.133Z,55.21
2022-09-10T13:59:32.133Z,55.83
2022-09-10T14:00:40.722Z,56.70
2022-09-10T14:01:55.775Z,55.01
2022-09-10T14:03:01.468Z,53.92
2022-09-10T14:04:21.299Z,53.72
2022-09-10T14:05:23.386Z,55.47
2022-09-10T14:06:25.655Z,56.97
2022-09-10T14:07:28.963Z,55.15
2022-09-10T14:08:30.779Z,55.02